sensor_id;sensor_type;location;lat;lon;timestamp;pressure;altitude;pressure_sealevel;temperature;humidity
73341;BME280;61578;52.002;5.468;2023-12-20T00:00:19;101541.56;;;6.65;99.64
73341;BME280;61578;52.002;5.468;2023-12-20T00:00:49;101543.41;;;6.63;99.44
73341;BME280;61578;52.002;5.468;2023-12-20T00:01:21;101546.22;;;6.58;99.15
73341;BME280;61578;52.002;5.468;2023-12-20T00:01:52;101546.28;;;6.57;99.59
73341;BME280;61578;52.002;5.468;2023-12-20T00:02:23;101541.00;;;6.57;99.87
73341;BME280;61578;52.002;5.468;2023-12-20T00:02:54;101531.69;;;6.47;99.48
73341;BME280;61578;52.002;5.468;2023-12-20T00:03:25;101532.38;;;6.52;99.60
73341;BME280;61578;52.002;5.468;2023-12-20T00:03:55;101538.69;;;6.48;99.50
73341;BME280;61578;52.002;5.468;2023-12-20T00:04:26;101539.63;;;6.47;100.00
73341;BME280;61578;52.002;5.468;2023-12-20T00:04:57;101536.97;;;6.47;100.00
73341;BME280;61578;52.002;5.468;2023-12-20T00:05:27;101542.19;;;6.48;100.00
73341;BME280;61578;52.002;5.468;2023-12-20T00:05:58;101539.56;;;6.48;100.00
73341;BME280;61578;52.002;5.468;2023-12-20T00:06:30;101540.44;;;6.49;100.00
73341;BME280;61578;52.002;5.468;2023-12-20T00:07:01;101542.09;;;6.51;100.00
73341;BME280;61578;52.002;5.468;2023-12-20T00:07:32;101538.50;;;6.52;100.00
73341;BME280;61578;52.002;5.468;2023-12-20T00:08:03;101538.50;;;6.52;100.00
73341;BME280;61578;52.002;5.468;2023-12-20T00:08:35;101538.50;;;6.52;100.00
73341;BME280;61578;52.002;5.468;2023-12-20T00:09:06;101536.75;;;6.53;100.00
73341;BME280;61578;52.002;5.468;2023-12-20T00:09:37;101541.91;;;6.56;100.00
73341;BME280;61578;52.002;5.468;2023-12-20T00:10:08;101535.78;;;6.55;100.00
73341;BME280;61578;52.002;5.468;2023-12-20T00:10:39;101541.88;;;6.57;100.00
73341;BME280;61578;52.002;5.468;2023-12-20T00:11:10;101539.22;;;6.57;100.00
73341;BME280;61578;52.002;5.468;2023-12-20T00:11:41;101487.47;;;6.30;100.00
73341;BME280;61578;52.002;5.468;2023-12-20T00:12:12;101541.81;;;6.59;100.00
73341;BME280;61578;52.002;5.468;2023-12-20T00:12:43;101536.53;;;6.59;100.00
73341;BME280;61578;52.002;5.468;2023-12-20T00:13:14;101538.25;;;6.60;100.00
73341;BME280;61578;52.002;5.468;2023-12-20T00:13:44;101542.69;;;6.59;100.00
73341;BME280;61578;52.002;5.468;2023-12-20T00:14:15;101538.25;;;6.60;100.00
73341;BME280;61578;52.002;5.468;2023-12-20T00:14:46;101537.34;;;6.61;100.00
73341;BME280;61578;52.002;5.468;2023-12-20T00:15:17;101528.81;;;6.53;99.92
73341;BME280;61578;52.002;5.468;2023-12-20T00:15:48;101537.50;;;6.56;99.73
73341;BME280;61578;52.002;5.468;2023-12-20T00:16:19;101536.75;;;6.53;99.47
73341;BME280;61578;52.002;5.468;2023-12-20T00:16:49;101532.38;;;6.52;99.62
73341;BME280;61578;52.002;5.468;2023-12-20T00:17:20;101521.97;;;6.49;99.80
73341;BME280;61578;52.002;5.468;2023-12-20T00:17:51;101532.50;;;6.49;99.42
73341;BME280;61578;52.002;5.468;2023-12-20T00:18:23;101533.38;;;6.49;99.78
73341;BME280;61578;52.002;5.468;2023-12-20T00:18:54;101501.56;;;6.29;99.76
73341;BME280;61578;52.002;5.468;2023-12-20T00:19:24;101528.19;;;6.46;99.32
73341;BME280;61578;52.002;5.468;2023-12-20T00:19:55;101518.66;;;6.42;99.67
73341;BME280;61578;52.002;5.468;2023-12-20T00:20:28;101518.75;;;6.41;98.68
73341;BME280;61578;52.002;5.468;2023-12-20T00:20:59;101521.44;;;6.39;98.76
73341;BME280;61578;52.002;5.468;2023-12-20T00:21:30;101449.31;;;5.90;99.10
73341;BME280;61578;52.002;5.468;2023-12-20T00:22:01;101523.31;;;6.36;99.71
73341;BME280;61578;52.002;5.468;2023-12-20T00:22:32;101514.63;;;6.32;99.76
73341;BME280;61578;52.002;5.468;2023-12-20T00:23:02;101523.41;;;6.33;99.41
73341;BME280;61578;52.002;5.468;2023-12-20T00:23:33;101526.22;;;6.28;98.60
73341;BME280;61578;52.002;5.468;2023-12-20T00:24:04;101525.34;;;6.27;99.12
73341;BME280;61578;52.002;5.468;2023-12-20T00:24:35;101495.34;;;6.07;99.74
73341;BME280;61578;52.002;5.468;2023-12-20T00:25:07;101509.91;;;6.17;99.96
73341;BME280;61578;52.002;5.468;2023-12-20T00:25:38;101521.97;;;6.24;99.79
73341;BME280;61578;52.002;5.468;2023-12-20T00:26:08;101534.28;;;6.23;99.87
73341;BME280;61578;52.002;5.468;2023-12-20T00:26:39;101525.50;;;6.23;99.27
73341;BME280;61578;52.002;5.468;2023-12-20T00:27:10;101521.16;;;6.22;99.76
73341;BME280;61578;52.002;5.468;2023-12-20T00:27:41;101535.25;;;6.21;100.00
73341;BME280;61578;52.002;5.468;2023-12-20T00:28:12;101522.00;;;6.22;100.00
73341;BME280;61578;52.002;5.468;2023-12-20T00:28:43;101529.06;;;6.22;99.35
73341;BME280;61578;52.002;5.468;2023-12-20T00:29:13;101523.00;;;6.20;99.17
73341;BME280;61578;52.002;5.468;2023-12-20T00:29:44;101524.88;;;6.16;99.18
73341;BME280;61578;52.002;5.468;2023-12-20T00:30:18;101533.69;;;6.15;99.83
73341;BME280;61578;52.002;5.468;2023-12-20T00:30:48;101534.56;;;6.16;99.78
73341;BME280;61578;52.002;5.468;2023-12-20T00:31:19;101525.84;;;6.14;99.79
73341;BME280;61578;52.002;5.468;2023-12-20T00:31:50;101518.09;;;6.09;100.00
73341;BME280;61578;52.002;5.468;2023-12-20T00:32:21;101523.25;;;6.12;100.00
73341;BME280;61578;52.002;5.468;2023-12-20T00:32:51;101532.84;;;6.15;100.00
73341;BME280;61578;52.002;5.468;2023-12-20T00:33:22;101524.91;;;6.15;100.00
73341;BME280;61578;52.002;5.468;2023-12-20T00:33:53;101510.81;;;6.16;100.00
73341;BME280;61578;52.002;5.468;2023-12-20T00:34:24;101485.25;;;5.93;99.94
73341;BME280;61578;52.002;5.468;2023-12-20T00:34:55;101519.00;;;6.08;98.95
73341;BME280;61578;52.002;5.468;2023-12-20T00:35:26;101512.06;;;6.06;99.02
73341;BME280;61578;52.002;5.468;2023-12-20T00:35:57;101507.00;;;6.00;99.18
73341;BME280;61578;52.002;5.468;2023-12-20T00:36:28;101514.91;;;6.00;99.74
73341;BME280;61578;52.002;5.468;2023-12-20T00:36:58;101466.59;;;5.73;99.59
73341;BME280;61578;52.002;5.468;2023-12-20T00:37:29;101517.47;;;6.01;100.00
73341;BME280;61578;52.002;5.468;2023-12-20T00:38:00;101518.53;;;5.97;99.51
73341;BME280;61578;52.002;5.468;2023-12-20T00:38:31;101520.97;;;6.02;100.00
73341;BME280;61578;52.002;5.468;2023-12-20T00:39:02;101521.84;;;6.02;100.00
73341;BME280;61578;52.002;5.468;2023-12-20T00:39:33;101483.00;;;5.81;100.00
73341;BME280;61578;52.002;5.468;2023-12-20T00:40:04;101521.84;;;6.02;100.00
73341;BME280;61578;52.002;5.468;2023-12-20T00:40:36;101517.59;;;5.98;100.00
73341;BME280;61578;52.002;5.468;2023-12-20T00:41:07;101514.16;;;5.96;100.00
73341;BME280;61578;52.002;5.468;2023-12-20T00:41:38;101492.69;;;5.80;100.00
73341;BME280;61578;52.002;5.468;2023-12-20T00:42:08;101520.94;;;6.03;100.00
73341;BME280;61578;52.002;5.468;2023-12-20T00:42:39;101525.28;;;6.04;100.00
73341;BME280;61578;52.002;5.468;2023-12-20T00:43:10;101508.72;;;6.01;100.00
73341;BME280;61578;52.002;5.468;2023-12-20T00:43:40;101521.75;;;6.05;100.00
73341;BME280;61578;52.002;5.468;2023-12-20T00:44:11;101522.66;;;6.04;100.00
73341;BME280;61578;52.002;5.468;2023-12-20T00:44:42;101525.28;;;6.04;100.00
73341;BME280;61578;52.002;5.468;2023-12-20T00:45:13;101513.16;;;6.00;99.82
73341;BME280;61578;52.002;5.468;2023-12-20T00:45:44;101521.84;;;6.02;100.00
73341;BME280;61578;52.002;5.468;2023-12-20T00:46:15;101526.16;;;6.05;100.00
73341;BME280;61578;52.002;5.468;2023-12-20T00:46:49;101526.25;;;6.02;100.00
73341;BME280;61578;52.002;5.468;2023-12-20T00:47:20;101519.09;;;6.05;100.00
73341;BME280;61578;52.002;5.468;2023-12-20T00:47:51;101496.75;;;5.90;100.00
73341;BME280;61578;52.002;5.468;2023-12-20T00:48:22;101507.97;;;5.97;100.00
73341;BME280;61578;52.002;5.468;2023-12-20T00:48:52;101509.56;;;6.01;100.00
73341;BME280;61578;52.002;5.468;2023-12-20T00:49:23;101518.03;;;6.11;100.00
73341;BME280;61578;52.002;5.468;2023-12-20T00:49:54;101517.19;;;6.10;100.00
73341;BME280;61578;52.002;5.468;2023-12-20T00:50:25;101517.88;;;6.15;100.00
73341;BME280;61578;52.002;5.468;2023-12-20T00:50:56;101506.56;;;6.12;100.00
73341;BME280;61578;52.002;5.468;2023-12-20T00:51:27;101517.78;;;6.18;100.00
73341;BME280;61578;52.002;5.468;2023-12-20T00:51:57;101513.38;;;6.19;100.00
73341;BME280;61578;52.002;5.468;2023-12-20T00:52:28;101515.97;;;6.20;100.00
73341;BME280;61578;52.002;5.468;2023-12-20T00:52:59;101521.22;;;6.20;100.00
73341;BME280;61578;52.002;5.468;2023-12-20T00:53:30;101519.50;;;6.19;100.00
73341;BME280;61578;52.002;5.468;2023-12-20T00:54:01;101510.78;;;6.17;100.00
73341;BME280;61578;52.002;5.468;2023-12-20T00:54:32;101469.50;;;5.91;99.81
73341;BME280;61578;52.002;5.468;2023-12-20T00:55:03;101531.00;;;6.17;99.70
73341;BME280;61578;52.002;5.468;2023-12-20T00:55:34;101513.56;;;6.13;100.00
73341;BME280;61578;52.002;5.468;2023-12-20T00:56:05;101519.69;;;6.13;99.73
73341;BME280;61578;52.002;5.468;2023-12-20T00:56:36;101522.19;;;6.18;99.94
73341;BME280;61578;52.002;5.468;2023-12-20T00:57:07;101528.19;;;6.21;100.00
73341;BME280;61578;52.002;5.468;2023-12-20T00:57:38;101523.88;;;6.20;100.00
73341;BME280;61578;52.002;5.468;2023-12-20T00:58:09;101518.63;;;6.19;100.00
73341;BME280;61578;52.002;5.468;2023-12-20T00:58:39;101523.00;;;6.20;99.84
73341;BME280;61578;52.002;5.468;2023-12-20T00:59:10;101531.78;;;6.20;99.93
73341;BME280;61578;52.002;5.468;2023-12-20T00:59:41;101523.19;;;6.14;99.67
73341;BME280;61578;52.002;5.468;2023-12-20T01:00:12;101531.88;;;6.17;99.61
73341;BME280;61578;52.002;5.468;2023-12-20T01:00:43;101523.28;;;6.11;98.94
73341;BME280;61578;52.002;5.468;2023-12-20T01:01:15;101527.59;;;6.13;99.12
73341;BME280;61578;52.002;5.468;2023-12-20T01:01:46;101515.50;;;6.08;99.41
73341;BME280;61578;52.002;5.468;2023-12-20T01:02:16;101513.78;;;6.07;99.48
73341;BME280;61578;52.002;5.468;2023-12-20T01:02:47;101526.91;;;6.08;98.28
73341;BME280;61578;52.002;5.468;2023-12-20T01:03:20;101517.38;;;6.04;98.57
73341;BME280;61578;52.002;5.468;2023-12-20T01:03:51;101517.56;;;6.00;98.77
73341;BME280;61578;52.002;5.468;2023-12-20T01:04:21;101519.19;;;6.02;99.09
73341;BME280;61578;52.002;5.468;2023-12-20T01:04:52;101520.25;;;5.98;99.26
73341;BME280;61578;52.002;5.468;2023-12-20T01:05:23;101520.03;;;6.04;99.84
73341;BME280;61578;52.002;5.468;2023-12-20T01:05:54;101515.50;;;6.08;100.00
73341;BME280;61578;52.002;5.468;2023-12-20T01:06:24;101517.97;;;6.12;100.00
73341;BME280;61578;52.002;5.468;2023-12-20T01:06:55;101515.25;;;6.15;100.00
73341;BME280;61578;52.002;5.468;2023-12-20T01:07:26;101486.97;;;5.94;100.00
73341;BME280;61578;52.002;5.468;2023-12-20T01:07:57;101518.97;;;6.10;100.00
73341;BME280;61578;52.002;5.468;2023-12-20T01:08:27;101520.50;;;6.15;100.00
73341;BME280;61578;52.002;5.468;2023-12-20T01:08:58;101518.78;;;6.14;100.00
73341;BME280;61578;52.002;5.468;2023-12-20T01:09:29;101520.56;;;6.14;100.00
73341;BME280;61578;52.002;5.468;2023-12-20T01:10:00;101518.84;;;6.13;99.75
73341;BME280;61578;52.002;5.468;2023-12-20T01:10:31;101504.84;;;6.11;99.84
73341;BME280;61578;52.002;5.468;2023-12-20T01:11:04;101524.88;;;6.16;100.00
73341;BME280;61578;52.002;5.468;2023-12-20T01:11:36;101516.91;;;6.18;99.90
73341;BME280;61578;52.002;5.468;2023-12-20T01:12:07;101520.47;;;6.17;99.89
73341;BME280;61578;52.002;5.468;2023-12-20T01:12:37;101515.13;;;6.18;99.80
73341;BME280;61578;52.002;5.468;2023-12-20T01:13:08;101513.47;;;6.16;99.70
73341;BME280;61578;52.002;5.468;2023-12-20T01:13:39;101513.31;;;6.20;99.50
73341;BME280;61578;52.002;5.468;2023-12-20T01:14:10;101506.19;;;6.22;99.61
73341;BME280;61578;52.002;5.468;2023-12-20T01:14:41;101523.72;;;6.23;99.36
73341;BME280;61578;52.002;5.468;2023-12-20T01:15:12;101506.41;;;6.16;99.26
73341;BME280;61578;52.002;5.468;2023-12-20T01:15:43;101513.31;;;6.20;99.42
73341;BME280;61578;52.002;5.468;2023-12-20T01:16:14;101517.72;;;6.20;99.65
73341;BME280;61578;52.002;5.468;2023-12-20T01:16:45;101512.69;;;6.12;98.94
73341;BME280;61578;52.002;5.468;2023-12-20T01:17:16;101517.06;;;6.13;98.63
73341;BME280;61578;52.002;5.468;2023-12-20T01:17:47;101514.38;;;6.15;99.49
73341;BME280;61578;52.002;5.468;2023-12-20T01:18:17;101511.09;;;6.08;99.33
73341;BME280;61578;52.002;5.468;2023-12-20T01:18:48;101519.66;;;6.15;99.22
73341;BME280;61578;52.002;5.468;2023-12-20T01:19:19;101517.19;;;6.10;98.89
73341;BME280;61578;52.002;5.468;2023-12-20T01:19:50;101515.50;;;6.08;98.30
73341;BME280;61578;52.002;5.468;2023-12-20T01:20:21;101501.56;;;6.04;99.23
73341;BME280;61578;52.002;5.468;2023-12-20T01:20:52;101513.84;;;6.05;99.23
73341;BME280;61578;52.002;5.468;2023-12-20T01:21:23;101509.47;;;6.04;99.13
73341;BME280;61578;52.002;5.468;2023-12-20T01:21:54;101522.56;;;6.07;99.78
73341;BME280;61578;52.002;5.468;2023-12-20T01:22:25;101508.56;;;6.05;99.50
73341;BME280;61578;52.002;5.468;2023-12-20T01:22:56;101475.97;;;5.81;99.48
73341;BME280;61578;52.002;5.468;2023-12-20T01:23:27;101516.47;;;6.05;99.62
73341;BME280;61578;52.002;5.468;2023-12-20T01:23:58;101515.56;;;6.06;99.63
73341;BME280;61578;52.002;5.468;2023-12-20T01:24:29;101492.25;;;5.94;99.98
73341;BME280;61578;52.002;5.468;2023-12-20T01:25:00;101475.09;;;5.81;99.67
73341;BME280;61578;52.002;5.468;2023-12-20T01:25:30;101514.66;;;6.07;99.70
73341;BME280;61578;52.002;5.468;2023-12-20T01:26:01;101514.66;;;6.07;99.58
73341;BME280;61578;52.002;5.468;2023-12-20T01:26:33;101512.97;;;6.05;99.46
73341;BME280;61578;52.002;5.468;2023-12-20T01:27:04;101515.56;;;6.06;99.35
73341;BME280;61578;52.002;5.468;2023-12-20T01:27:34;101508.56;;;6.05;99.69
73341;BME280;61578;52.002;5.468;2023-12-20T01:28:05;101516.41;;;6.07;99.59
73341;BME280;61578;52.002;5.468;2023-12-20T01:28:36;101512.00;;;6.07;99.42
73341;BME280;61578;52.002;5.468;2023-12-20T01:29:07;101518.19;;;6.06;99.09
73341;BME280;61578;52.002;5.468;2023-12-20T01:29:37;101510.28;;;6.06;99.43
73341;BME280;61578;52.002;5.468;2023-12-20T01:30:09;101519.00;;;6.08;99.53
73341;BME280;61578;52.002;5.468;2023-12-20T01:30:40;101504.16;;;6.06;99.83
73341;BME280;61578;52.002;5.468;2023-12-20T01:31:10;101510.06;;;6.12;99.36
73341;BME280;61578;52.002;5.468;2023-12-20T01:31:41;101511.06;;;6.10;99.29
73341;BME280;61578;52.002;5.468;2023-12-20T01:32:12;101513.56;;;6.13;99.48
73341;BME280;61578;52.002;5.468;2023-12-20T01:32:43;101483.47;;;5.94;99.15
73341;BME280;61578;52.002;5.468;2023-12-20T01:33:14;101518.75;;;6.16;99.33
73341;BME280;61578;52.002;5.468;2023-12-20T01:33:44;101524.00;;;6.16;99.05
73341;BME280;61578;52.002;5.468;2023-12-20T01:34:15;101521.41;;;6.14;99.13
73341;BME280;61578;52.002;5.468;2023-12-20T01:34:46;101517.00;;;6.15;99.02
73341;BME280;61578;52.002;5.468;2023-12-20T01:35:18;101519.91;;;6.07;98.57
73341;BME280;61578;52.002;5.468;2023-12-20T01:35:50;101517.25;;;6.09;98.97
73341;BME280;61578;52.002;5.468;2023-12-20T01:36:20;101511.25;;;6.04;98.57
73341;BME280;61578;52.002;5.468;2023-12-20T01:36:51;101482.00;;;5.85;99.07
73341;BME280;61578;52.002;5.468;2023-12-20T01:37:22;101521.75;;;6.05;98.84
73341;BME280;61578;52.002;5.468;2023-12-20T01:37:55;101521.78;;;6.04;98.55
73341;BME280;61578;52.002;5.468;2023-12-20T01:38:27;101515.72;;;6.02;98.77
73341;BME280;61578;52.002;5.468;2023-12-20T01:38:57;101479.63;;;5.77;99.10
73341;BME280;61578;52.002;5.468;2023-12-20T01:39:28;101449.59;;;5.57;99.11
73341;BME280;61578;52.002;5.468;2023-12-20T01:39:59;101474.47;;;5.74;99.13
73341;BME280;61578;52.002;5.468;2023-12-20T01:40:30;101521.84;;;6.02;99.22
73341;BME280;61578;52.002;5.468;2023-12-20T01:41:00;101485.72;;;5.79;99.27
73341;BME280;61578;52.002;5.468;2023-12-20T01:41:31;101527.97;;;6.03;99.58
73341;BME280;61578;52.002;5.468;2023-12-20T01:42:02;101524.47;;;6.02;99.28
73341;BME280;61578;52.002;5.468;2023-12-20T01:42:33;101518.41;;;6.00;99.85
73341;BME280;61578;52.002;5.468;2023-12-20T01:43:08;101529.66;;;6.05;99.81
73341;BME280;61578;52.002;5.468;2023-12-20T01:43:39;101530.47;;;6.07;99.54
73341;BME280;61578;52.002;5.468;2023-12-20T01:44:10;101524.28;;;6.08;100.00
73341;BME280;61578;52.002;5.468;2023-12-20T01:44:41;101530.38;;;6.10;99.94
73341;BME280;61578;52.002;5.468;2023-12-20T01:45:12;101520.59;;;6.12;99.94
73341;BME280;61578;52.002;5.468;2023-12-20T01:45:42;101530.16;;;6.16;99.82
73341;BME280;61578;52.002;5.468;2023-12-20T01:46:14;101517.09;;;6.12;99.72
73341;BME280;61578;52.002;5.468;2023-12-20T01:46:47;101523.91;;;6.19;100.00
73341;BME280;61578;52.002;5.468;2023-12-20T01:47:18;101522.88;;;6.23;100.00
73341;BME280;61578;52.002;5.468;2023-12-20T01:47:50;101523.72;;;6.23;99.79
73341;BME280;61578;52.002;5.468;2023-12-20T01:48:21;101521.03;;;6.25;99.61
73341;BME280;61578;52.002;5.468;2023-12-20T01:48:52;101526.28;;;6.26;99.77
73341;BME280;61578;52.002;5.468;2023-12-20T01:49:23;101489.28;;;6.03;99.66
73341;BME280;61578;52.002;5.468;2023-12-20T01:49:55;101527.09;;;6.28;99.86
73341;BME280;61578;52.002;5.468;2023-12-20T01:50:28;101464.88;;;5.98;99.84
73341;BME280;61578;52.002;5.468;2023-12-20T01:51:02;101528.72;;;6.31;99.71
73341;BME280;61578;52.002;5.468;2023-12-20T01:51:34;101527.91;;;6.31;99.84
73341;BME280;61578;52.002;5.468;2023-12-20T01:52:06;101508.78;;;6.24;99.68
73341;BME280;61578;52.002;5.468;2023-12-20T01:52:39;101521.69;;;6.32;100.00
73341;BME280;61578;52.002;5.468;2023-12-20T01:53:12;101519.81;;;6.35;99.25
73341;BME280;61578;52.002;5.468;2023-12-20T01:53:44;101521.47;;;6.38;99.40
73341;BME280;61578;52.002;5.468;2023-12-20T01:54:16;101529.38;;;6.38;99.26
73341;BME280;61578;52.002;5.468;2023-12-20T01:54:48;101527.63;;;6.38;99.35
73341;BME280;61578;52.002;5.468;2023-12-20T01:55:20;101517.22;;;6.34;99.38
73341;BME280;61578;52.002;5.468;2023-12-20T01:55:52;101520.56;;;6.39;99.24
73341;BME280;61578;52.002;5.468;2023-12-20T01:56:28;101536.41;;;6.39;99.09
73341;BME280;61578;52.002;5.468;2023-12-20T01:57:01;101517.28;;;6.32;98.81
73341;BME280;61578;52.002;5.468;2023-12-20T01:57:33;101543.50;;;6.37;98.75
73341;BME280;61578;52.002;5.468;2023-12-20T01:58:05;101526.81;;;6.36;98.67
73341;BME280;61578;52.002;5.468;2023-12-20T01:58:43;101526.72;;;6.39;98.61
73341;BME280;61578;52.002;5.468;2023-12-20T01:59:18;101528.53;;;6.37;98.45
73341;BME280;61578;52.002;5.468;2023-12-20T01:59:50;101509.88;;;6.18;98.44
73341;BME280;61578;52.002;5.468;2023-12-20T02:00:22;101533.03;;;6.34;98.77
73341;BME280;61578;52.002;5.468;2023-12-20T02:00:55;101532.09;;;6.36;98.75
73341;BME280;61578;52.002;5.468;2023-12-20T02:01:27;101534.72;;;6.36;98.78
73341;BME280;61578;52.002;5.468;2023-12-20T02:01:59;101523.34;;;6.34;99.45
73341;BME280;61578;52.002;5.468;2023-12-20T02:02:30;101520.78;;;6.33;99.04
73341;BME280;61578;52.002;5.468;2023-12-20T02:03:02;101526.22;;;6.28;98.81
73341;BME280;61578;52.002;5.468;2023-12-20T02:03:34;101530.44;;;6.32;98.92
73341;BME280;61578;52.002;5.468;2023-12-20T02:04:07;101533.16;;;6.31;98.64
73341;BME280;61578;52.002;5.468;2023-12-20T02:04:38;101528.00;;;6.27;98.59
73341;BME280;61578;52.002;5.468;2023-12-20T02:05:09;101536.72;;;6.30;98.63
73341;BME280;61578;52.002;5.468;2023-12-20T02:05:41;101478.88;;;6.00;98.56
73341;BME280;61578;52.002;5.468;2023-12-20T02:06:13;101523.59;;;6.28;98.70
73341;BME280;61578;52.002;5.468;2023-12-20T02:06:46;101524.50;;;6.27;98.74
73341;BME280;61578;52.002;5.468;2023-12-20T02:07:18;101520.19;;;6.24;98.80
73341;BME280;61578;52.002;5.468;2023-12-20T02:07:50;101518.31;;;6.28;98.65
73341;BME280;61578;52.002;5.468;2023-12-20T02:08:21;101523.63;;;6.26;99.21
73341;BME280;61578;52.002;5.468;2023-12-20T02:08:51;101515.78;;;6.25;98.82
73341;BME280;61578;52.002;5.468;2023-12-20T02:09:22;101527.94;;;6.29;99.34
73341;BME280;61578;52.002;5.468;2023-12-20T02:09:53;101517.41;;;6.29;99.58
73341;BME280;61578;52.002;5.468;2023-12-20T02:10:25;101522.81;;;6.24;99.29
73341;BME280;61578;52.002;5.468;2023-12-20T02:10:56;101525.34;;;6.27;99.14
73341;BME280;61578;52.002;5.468;2023-12-20T02:11:27;101534.09;;;6.30;99.64
73341;BME280;61578;52.002;5.468;2023-12-20T02:12:01;101513.41;;;6.17;99.57
73341;BME280;61578;52.002;5.468;2023-12-20T02:12:32;101520.19;;;6.24;99.79
73341;BME280;61578;52.002;5.468;2023-12-20T02:13:03;101522.69;;;6.29;99.88
73341;BME280;61578;52.002;5.468;2023-12-20T02:13:35;101524.44;;;6.28;99.74
73341;BME280;61578;52.002;5.468;2023-12-20T02:14:06;101528.09;;;6.24;99.48
73341;BME280;61578;52.002;5.468;2023-12-20T02:14:37;101520.91;;;6.30;99.42
73341;BME280;61578;52.002;5.468;2023-12-20T02:15:08;101526.19;;;6.30;99.74
73341;BME280;61578;52.002;5.468;2023-12-20T02:15:39;101520.81;;;6.31;99.82
73341;BME280;61578;52.002;5.468;2023-12-20T02:16:12;101520.78;;;6.33;99.83
73341;BME280;61578;52.002;5.468;2023-12-20T02:16:43;101521.59;;;6.35;99.95
73341;BME280;61578;52.002;5.468;2023-12-20T02:17:14;101519.00;;;6.33;99.91
73341;BME280;61578;52.002;5.468;2023-12-20T02:17:47;101517.97;;;6.37;99.64
73341;BME280;61578;52.002;5.468;2023-12-20T02:18:18;101513.53;;;6.39;99.47
73341;BME280;61578;52.002;5.468;2023-12-20T02:18:49;101517.94;;;6.39;99.47
73341;BME280;61578;52.002;5.468;2023-12-20T02:19:20;101515.34;;;6.37;99.43
73341;BME280;61578;52.002;5.468;2023-12-20T02:19:51;101516.22;;;6.38;99.15
73341;BME280;61578;52.002;5.468;2023-12-20T02:20:22;101514.53;;;6.35;99.12
73341;BME280;61578;52.002;5.468;2023-12-20T02:20:53;101516.50;;;6.30;98.84
73341;BME280;61578;52.002;5.468;2023-12-20T02:21:33;101517.28;;;6.32;99.05
73341;BME280;61578;52.002;5.468;2023-12-20T02:22:08;101511.25;;;6.28;98.59
73341;BME280;61578;52.002;5.468;2023-12-20T02:22:42;101510.50;;;6.25;98.82
73341;BME280;61578;52.002;5.468;2023-12-20T02:23:13;101516.53;;;6.28;99.22
73341;BME280;61578;52.002;5.468;2023-12-20T02:23:44;101510.41;;;6.28;98.54
73341;BME280;61578;52.002;5.468;2023-12-20T02:24:15;101519.28;;;6.25;98.48
73341;BME280;61578;52.002;5.468;2023-12-20T02:24:45;101518.41;;;6.25;98.51
73341;BME280;61578;52.002;5.468;2023-12-20T02:25:16;101509.91;;;6.17;98.75
73341;BME280;61578;52.002;5.468;2023-12-20T02:25:47;101522.78;;;6.26;99.43
73341;BME280;61578;52.002;5.468;2023-12-20T02:26:18;101512.28;;;6.24;98.93
73341;BME280;61578;52.002;5.468;2023-12-20T02:26:49;101521.91;;;6.25;99.32
73341;BME280;61578;52.002;5.468;2023-12-20T02:27:20;101517.59;;;6.23;99.36
73341;BME280;61578;52.002;5.468;2023-12-20T02:27:52;101523.91;;;6.19;99.04
73341;BME280;61578;52.002;5.468;2023-12-20T02:28:23;101501.09;;;6.18;99.23
73341;BME280;61578;52.002;5.468;2023-12-20T02:28:54;101512.28;;;6.24;99.13
73341;BME280;61578;52.002;5.468;2023-12-20T02:29:25;101511.38;;;6.25;99.33
73341;BME280;61578;52.002;5.468;2023-12-20T02:29:57;101515.72;;;6.26;99.36
73341;BME280;61578;52.002;5.468;2023-12-20T02:30:28;101512.19;;;6.27;99.19
73341;BME280;61578;52.002;5.468;2023-12-20T02:30:58;101499.09;;;6.24;99.23
73341;BME280;61578;52.002;5.468;2023-12-20T02:31:29;101512.19;;;6.27;99.62
73341;BME280;61578;52.002;5.468;2023-12-20T02:32:00;101456.75;;;6.04;99.69
73341;BME280;61578;52.002;5.468;2023-12-20T02:32:31;101495.44;;;6.28;99.44
73341;BME280;61578;52.002;5.468;2023-12-20T02:33:04;101500.66;;;6.30;99.34
73341;BME280;61578;52.002;5.468;2023-12-20T02:33:41;101513.66;;;6.35;99.27
73341;BME280;61578;52.002;5.468;2023-12-20T02:34:12;101504.84;;;6.36;98.96
73341;BME280;61578;52.002;5.468;2023-12-20T02:34:43;101508.28;;;6.38;99.12
73341;BME280;61578;52.002;5.468;2023-12-20T02:35:14;101513.56;;;6.38;99.45
73341;BME280;61578;52.002;5.468;2023-12-20T02:35:45;101510.03;;;6.39;99.59
73341;BME280;61578;52.002;5.468;2023-12-20T02:36:16;101506.53;;;6.38;99.62
73341;BME280;61578;52.002;5.468;2023-12-20T02:36:47;101510.75;;;6.42;99.66
73341;BME280;61578;52.002;5.468;2023-12-20T02:37:18;101506.38;;;6.41;99.41
73341;BME280;61578;52.002;5.468;2023-12-20T02:37:48;101516.78;;;6.46;99.42
73341;BME280;61578;52.002;5.468;2023-12-20T02:38:19;101509.72;;;6.46;99.09
73341;BME280;61578;52.002;5.468;2023-12-20T02:38:50;101501.72;;;6.49;99.20
73341;BME280;61578;52.002;5.468;2023-12-20T02:39:22;101504.41;;;6.48;99.26
73341;BME280;61578;52.002;5.468;2023-12-20T02:39:52;101505.28;;;6.48;99.34
73341;BME280;61578;52.002;5.468;2023-12-20T02:40:23;101500.84;;;6.49;98.98
73341;BME280;61578;52.002;5.468;2023-12-20T02:40:54;101504.34;;;6.49;99.30
73341;BME280;61578;52.002;5.468;2023-12-20T02:41:25;101493.84;;;6.48;98.83
73341;BME280;61578;52.002;5.468;2023-12-20T02:41:56;101497.25;;;6.51;98.62
73341;BME280;61578;52.002;5.468;2023-12-20T02:42:26;101503.44;;;6.50;98.72
73341;BME280;61578;52.002;5.468;2023-12-20T02:42:57;101476.53;;;6.41;98.86
73341;BME280;61578;52.002;5.468;2023-12-20T02:43:28;101494.72;;;6.48;99.00
73341;BME280;61578;52.002;5.468;2023-12-20T02:43:59;101500.81;;;6.50;98.89
73341;BME280;61578;52.002;5.468;2023-12-20T02:44:29;101498.16;;;6.50;99.03
73341;BME280;61578;52.002;5.468;2023-12-20T02:45:00;101493.84;;;6.48;98.53